createdAt,value
2023-01-29T00:01:16.275Z,99454.66
2023-01-29T00:04:20.041Z,99441.25
2023-01-29T00:07:23.954Z,99444.53
2023-01-29T00:10:27.883Z,99456.63
2023-01-29T00:13:31.550Z,99466.44
2023-01-29T00:16:36.284Z,99462.09
2023-01-29T00:19:39.721Z,99452.75
2023-01-29T00:22:43.082Z,99456.63
2023-01-29T00:25:47.134Z,99457.69
2023-01-29T00:28:50.427Z,99467.84
2023-01-29T00:31:55.567Z,99465.09
2023-01-29T00:34:58.778Z,99470.56
2023-01-29T00:38:02.588Z,99466.19
2023-01-29T00:41:35.202Z,99460.13
2023-01-29T00:44:56.418Z,99459.06
2023-01-29T00:48:01.425Z,99462.88
2023-01-29T00:51:05.600Z,99457.41
2023-01-29T00:54:08.930Z,99453.00
2023-01-29T00:57:12.558Z,99456.56
2023-01-29T01:00:19.671Z,99459.56
2023-01-29T01:03:23.745Z,99463.41
2023-01-29T01:06:26.957Z,99456.56
2023-01-29T01:09:48.177Z,99441.50
2023-01-29T01:12:56.626Z,99445.06
2023-01-29T01:16:00.931Z,99439.56
2023-01-29T01:19:06.391Z,99423.41
2023-01-29T01:22:10.083Z,99436.00
2023-01-29T01:25:13.951Z,99423.41
2023-01-29T01:28:18.325Z,99427.78
2023-01-29T01:31:21.667Z,99420.66
2023-01-29T01:34:27.837Z,99420.94
2023-01-29T01:37:31.608Z,99431.63
2023-01-29T01:40:35.499Z,99431.06
2023-01-29T01:43:51.032Z,99433.22
2023-01-29T01:46:54.707Z,99437.63
2023-01-29T01:50:08.812Z,99423.41
2023-01-29T01:53:17.716Z,99422.28
2023-01-29T01:56:28.412Z,99419.00
2023-01-29T01:59:37.999Z,99411.63
2023-01-29T02:03:02.392Z,99411.63
2023-01-29T02:06:26.045Z,99407.22
2023-01-29T02:09:39.560Z,99405.59
2023-01-29T02:12:46.681Z,99411.31
2023-01-29T02:15:52.572Z,99429.41
2023-01-29T02:18:56.602Z,99414.06
2023-01-29T02:22:55.046Z,99409.09
2023-01-29T02:26:35.301Z,99403.63
2023-01-29T02:29:58.147Z,99413.75
2023-01-29T02:33:27.311Z,99418.41
2023-01-29T02:36:42.868Z,99424.97
2023-01-29T02:40:01.150Z,99422.22
2023-01-29T02:43:23.568Z,99426.88
2023-01-29T02:46:38.029Z,99431.53
2023-01-29T02:49:51.571Z,99430.72
2023-01-29T02:53:06.418Z,99426.88
2023-01-29T02:56:18.102Z,99437.84
2023-01-29T02:59:29.469Z,99422.22
2023-01-29T03:02:43.782Z,99426.06
2023-01-29T03:05:59.843Z,99431.53
2023-01-29T03:09:10.764Z,99432.38
2023-01-29T03:12:34.189Z,99423.88
2023-01-29T03:15:46.938Z,99420.31
2023-01-29T03:19:16.402Z,99425.53
2023-01-29T03:22:23.335Z,99411.28
2023-01-29T03:25:47.602Z,99405.53
2023-01-29T03:29:11.830Z,99405.53
2023-01-29T03:32:21.067Z,99396.50
2023-01-29T03:35:35.385Z,99397.03
2023-01-29T03:38:40.177Z,99403.06
2023-01-29T03:41:53.226Z,99397.59
2023-01-29T03:45:08.649Z,99396.50
2023-01-29T03:48:31.966Z,99391.84
2023-01-29T03:51:47.465Z,99382.81
2023-01-29T03:55:02.207Z,99374.59
2023-01-29T03:58:26.347Z,99362.00
2023-01-29T04:01:41.712Z,99354.59
2023-01-29T04:04:53.268Z,99358.16
2023-01-29T04:08:08.348Z,99351.03
2023-01-29T04:11:19.625Z,99363.09
2023-01-29T04:14:24.495Z,99354.88
2023-01-29T04:17:39.028Z,99354.03
2023-01-29T04:20:50.168Z,99351.31
2023-01-29T04:23:55.435Z,99348.56
2023-01-29T04:27:11.825Z,99345.84
2023-01-29T04:30:37.360Z,99337.88
2023-01-29T04:33:53.453Z,99337.88
2023-01-29T04:37:13.734Z,99342.84
2023-01-29T04:40:27.053Z,99345.31
2023-01-29T04:43:40.124Z,99353.53
2023-01-29T04:46:50.741Z,99341.75
2023-01-29T04:50:12.950Z,99342.84
2023-01-29T04:53:28.913Z,99337.63
2023-01-29T04:56:45.646Z,99334.06
2023-01-29T04:59:59.331Z,99335.69
2023-01-29T05:03:03.849Z,99330.22
2023-01-29T05:06:11.831Z,99334.06
2023-01-29T05:09:18.170Z,99326.94
2023-01-29T05:12:29.665Z,99329.66
2023-01-29T05:15:38.982Z,99328.56
2023-01-29T05:18:43.091Z,99323.09
2023-01-29T05:21:51.071Z,99338.72
2023-01-29T05:24:54.425Z,99312.97
2023-01-29T05:28:04.569Z,99323.09
2023-01-29T05:31:09.144Z,99327.75
2023-01-29T05:34:13.139Z,99315.97
2023-01-29T05:37:16.511Z,99322.28
2023-01-29T05:40:20.719Z,99324.19
2023-01-29T05:43:27.131Z,99322.53
2023-01-29T05:46:30.985Z,99331.59
2023-01-29T05:49:34.487Z,99315.97
2023-01-29T05:52:38.664Z,99325.28
2023-01-29T05:55:46.549Z,99338.97
2023-01-29T05:58:51.675Z,99333.50
2023-01-29T06:01:55.198Z,99347.19
2023-01-29T06:04:59.043Z,99358.13
2023-01-29T06:08:02.714Z,99344.44
2023-01-29T06:11:11.084Z,99346.63
2023-01-29T06:14:15.920Z,99351.00
2023-01-29T06:17:19.616Z,99345.81
2023-01-29T06:20:23.517Z,99335.16
2023-01-29T06:23:27.075Z,99333.78
2023-01-29T06:26:30.650Z,99335.16
2023-01-29T06:29:35.563Z,99334.06
2023-01-29T06:32:39.001Z,99348.31
2023-01-29T06:35:42.589Z,99334.09
2023-01-29T06:38:47.224Z,99339.03
2023-01-29T06:41:50.939Z,99338.50
2023-01-29T06:44:55.743Z,99344.25
2023-01-29T06:48:01.333Z,99337.16
2023-01-29T06:51:06.591Z,99346.19
2023-01-29T06:54:11.613Z,99338.00
2023-01-29T06:57:14.996Z,99336.63
2023-01-29T07:00:20.655Z,99342.41
2023-01-29T07:03:24.211Z,99338.56
2023-01-29T07:06:31.823Z,99347.34
2023-01-29T07:09:35.480Z,99345.16
2023-01-29T07:12:39.160Z,99350.63
2023-01-29T07:15:44.535Z,99358.59
2023-01-29T07:18:47.982Z,99357.75
2023-01-29T07:21:51.449Z,99360.25
2023-01-29T07:24:54.931Z,99359.94
2023-01-29T07:28:01.647Z,99361.03
2023-01-29T07:31:07.585Z,99376.38
2023-01-29T07:34:10.907Z,99379.13
2023-01-29T07:37:14.500Z,99382.41
2023-01-29T07:40:18.712Z,99375.28
2023-01-29T07:43:24.827Z,99385.44
2023-01-29T07:46:29.441Z,99376.94
2023-01-29T07:49:32.886Z,99376.94
2023-01-29T07:52:36.181Z,99370.91
2023-01-29T07:55:39.697Z,99371.47
2023-01-29T07:58:43.068Z,99368.16
2023-01-29T08:01:48.016Z,99375.28
2023-01-29T08:04:51.339Z,99394.47
2023-01-29T08:08:06.040Z,99403.50
2023-01-29T08:11:10.041Z,99404.34
2023-01-29T08:14:13.612Z,99405.16
2023-01-29T08:17:18.566Z,99393.38
2023-01-29T08:20:23.482Z,99408.47
2023-01-29T08:23:26.777Z,99392.84
2023-01-29T08:26:30.698Z,99387.38
2023-01-29T08:29:34.065Z,99396.97
2023-01-29T08:32:39.101Z,99390.66
2023-01-29T08:35:42.348Z,99390.41
2023-01-29T08:38:45.923Z,99372.63
2023-01-29T08:41:49.384Z,99362.50
2023-01-29T08:44:53.509Z,99368.81
2023-01-29T08:47:58.351Z,99367.69
2023-01-29T08:51:04.476Z,99369.88
2023-01-29T08:54:07.815Z,99366.63
2023-01-29T08:57:11.290Z,99371.03
2023-01-29T09:00:16.781Z,99347.44
2023-01-29T09:03:22.074Z,99349.38
2023-01-29T09:06:25.469Z,99353.75
2023-01-29T09:09:29.249Z,99352.94
2023-01-29T09:12:32.691Z,99357.91
2023-01-29T09:15:36.222Z,99360.63
2023-01-29T09:18:41.001Z,99343.63
2023-01-29T09:21:44.452Z,99352.97
2023-01-29T09:24:47.641Z,99351.34
2023-01-29T09:27:51.117Z,99351.59
2023-01-29T09:30:54.595Z,99352.69
2023-01-29T09:33:59.523Z,99347.50
2023-01-29T09:37:05.588Z,99348.56
2023-01-29T09:40:25.904Z,99326.06
2023-01-29T09:43:43.619Z,99324.72
2023-01-29T09:46:51.409Z,99322.25
2023-01-29T09:50:02.250Z,99321.97
2023-01-29T09:53:19.307Z,99316.22
2023-01-29T09:56:28.813Z,99304.69
2023-01-29T09:59:33.523Z,99293.44
2023-01-29T10:03:10.687Z,99294.78
2023-01-29T10:06:34.872Z,99298.38
2023-01-29T10:10:10.265Z,99285.47
2023-01-29T10:13:28.344Z,99276.97
2023-01-29T10:16:51.958Z,99280.81
2023-01-29T10:20:21.181Z,99264.91
2023-01-29T10:23:33.498Z,99269.84
2023-01-29T10:26:38.650Z,99265.97
2023-01-29T10:29:46.359Z,99245.41
2023-01-29T10:32:51.638Z,99249.22
2023-01-29T10:36:03.186Z,99233.84
2023-01-29T10:39:18.915Z,99211.09
2023-01-29T10:42:34.756Z,99209.16
2023-01-29T10:45:50.910Z,99207.50
2023-01-29T10:49:18.093Z,99203.66
2023-01-29T10:52:46.660Z,99196.25
2023-01-29T10:56:21.843Z,99202.84
2023-01-29T10:59:53.263Z,99203.38
2023-01-29T11:02:57.350Z,99197.59
2023-01-29T11:06:13.826Z,99198.13
2023-01-29T11:12:40.304Z,99200.84
2023-01-29T11:15:43.588Z,99201.94
2023-01-29T11:18:57.839Z,99209.88
2023-01-29T11:22:04.329Z,99203.28
2023-01-29T11:25:19.069Z,99200.25
2023-01-29T11:28:40.966Z,99205.72
2023-01-29T11:31:44.510Z,99201.59
2023-01-29T11:35:03.176Z,99185.69
2023-01-29T11:38:20.921Z,99186.78
2023-01-29T11:41:25.456Z,99187.91
2023-01-29T11:44:34.019Z,99166.19
2023-01-29T11:47:37.601Z,99180.19
2023-01-29T11:50:42.015Z,99162.84
2023-01-29T11:53:51.141Z,99152.41
2023-01-29T11:56:55.302Z,99145.50
2023-01-29T12:00:06.344Z,99146.59
2023-01-29T12:03:24.888Z,99152.31
2023-01-29T12:06:37.790Z,99149.28
2023-01-29T12:09:41.727Z,99150.94
2023-01-29T12:12:46.279Z,99134.16
2023-01-29T12:16:06.087Z,99129.50
2023-01-29T12:19:27.531Z,99135.81
2023-01-29T12:22:46.719Z,99120.44
2023-01-29T12:26:12.898Z,99116.34
2023-01-29T12:29:31.267Z,99107.56
2023-01-29T12:32:46.498Z,99103.75
2023-01-29T12:36:03.216Z,99099.66
2023-01-29T12:39:06.711Z,99099.38
2023-01-29T12:42:20.461Z,99100.75
2023-01-29T12:45:28.106Z,99090.34
2023-01-29T12:48:39.390Z,99091.72
2023-01-29T12:51:56.707Z,99095.88
2023-01-29T12:55:08.486Z,99091.78
2023-01-29T12:58:20.207Z,99080.53
2023-01-29T13:01:35.405Z,99075.31
2023-01-29T13:04:50.205Z,99072.03
2023-01-29T13:08:04.560Z,99066.84
2023-01-29T13:11:19.395Z,99045.97
2023-01-29T13:14:39.100Z,99056.13
2023-01-29T13:17:48.639Z,99053.69
2023-01-29T13:20:58.214Z,99052.34
2023-01-29T13:24:07.751Z,99048.22
2023-01-29T13:27:26.794Z,99042.72
2023-01-29T13:30:38.608Z,99039.66
2023-01-29T13:33:45.793Z,99036.06
2023-01-29T13:36:55.872Z,99032.47
2023-01-29T13:40:03.741Z,99043.13
2023-01-29T13:43:08.357Z,99049.69
2023-01-29T13:46:22.018Z,99041.41
2023-01-29T13:49:38.300Z,99046.31
2023-01-29T13:52:48.894Z,99040.81
2023-01-29T13:55:53.146Z,99040.81
2023-01-29T13:58:59.345Z,99035.91
2023-01-29T14:02:20.290Z,99027.44
2023-01-29T14:05:44.198Z,99024.44
2023-01-29T14:08:48.811Z,99032.13
2023-01-29T14:11:52.610Z,99032.72
2023-01-29T14:15:20.681Z,99022.88
2023-01-29T14:18:27.342Z,99014.09
2023-01-29T14:21:34.473Z,99009.47
2023-01-29T14:24:44.321Z,99022.16
2023-01-29T14:27:49.572Z,99018.03
2023-01-29T14:30:55.105Z,99018.88
2023-01-29T14:34:04.634Z,99024.06
2023-01-29T14:37:26.946Z,99030.91
2023-01-29T14:40:35.718Z,99028.69
2023-01-29T14:43:39.300Z,99022.91
2023-01-29T14:46:45.943Z,99019.34
2023-01-29T14:49:55.409Z,99016.91
2023-01-29T14:53:06.313Z,99030.31
2023-01-29T14:56:18.574Z,99024.00
2023-01-29T14:59:30.543Z,99006.97
2023-01-29T15:02:43.015Z,99018.78
2023-01-29T15:05:50.517Z,99009.16
2023-01-29T15:09:06.319Z,99003.94
2023-01-29T15:12:23.992Z,99008.03
2023-01-29T15:15:39.055Z,99004.19
2023-01-29T15:18:44.600Z,99010.22
2023-01-29T15:22:12.133Z,99003.38
2023-01-29T15:25:19.239Z,98995.69
2023-01-29T15:28:28.004Z,98986.34
2023-01-29T15:31:31.637Z,98979.97
2023-01-29T15:34:35.557Z,98988.44
2023-01-29T15:37:39.631Z,98989.28
2023-01-29T15:40:52.844Z,98975.00
2023-01-29T15:43:59.249Z,98986.81
2023-01-29T15:47:03.895Z,98981.88
2023-01-29T15:50:12.166Z,98976.69
2023-01-29T15:53:21.179Z,98974.28
2023-01-29T15:56:32.059Z,98979.78
2023-01-29T15:59:45.776Z,98978.41
2023-01-29T16:02:49.383Z,98981.72
2023-01-29T16:05:53.808Z,98967.25
2023-01-29T16:08:59.326Z,98959.28
2023-01-29T16:12:07.221Z,98963.72
2023-01-29T16:15:29.930Z,98976.06
2023-01-29T16:18:39.488Z,98968.94
2023-01-29T16:21:46.012Z,98957.97
2023-01-29T16:24:53.130Z,98959.38
2023-01-29T16:27:57.057Z,98958.03
2023-01-29T16:31:04.332Z,98953.09
2023-01-29T16:34:15.722Z,98969.84
2023-01-29T16:37:26.755Z,98960.25
2023-01-29T16:40:34.025Z,98964.13
2023-01-29T16:43:52.982Z,98973.22
2023-01-29T16:46:57.840Z,98966.47
2023-01-29T16:50:23.974Z,98979.44
2023-01-29T16:53:27.478Z,98978.03
2023-01-29T16:56:35.772Z,98974.19
2023-01-29T16:59:41.751Z,98974.72
2023-01-29T17:02:46.799Z,98972.50
2023-01-29T17:05:52.490Z,98964.81
2023-01-29T17:08:56.979Z,98970.28
2023-01-29T17:12:05.050Z,98959.88
2023-01-29T17:15:34.382Z,98959.84
2023-01-29T17:18:39.887Z,98958.72
2023-01-29T17:21:43.311Z,98943.34
2023-01-29T17:24:46.516Z,98943.59
2023-01-29T17:27:52.435Z,98933.97
2023-01-29T17:31:05.928Z,98940.81
2023-01-29T17:34:14.667Z,98950.69
2023-01-29T17:37:18.199Z,98938.34
2023-01-29T17:40:37.766Z,98937.53
2023-01-29T17:43:41.019Z,98933.41
2023-01-29T17:46:44.726Z,98941.31
2023-01-29T17:49:49.274Z,98929.25
2023-01-29T17:52:53.846Z,98928.13
2023-01-29T17:55:57.072Z,98919.63
2023-01-29T17:59:01.012Z,98910.59
2023-01-29T18:02:04.351Z,98921.56
2023-01-29T18:05:10.149Z,98921.84
2023-01-29T18:08:19.067Z,98916.91
2023-01-29T18:11:23.142Z,98921.81
2023-01-29T18:14:26.371Z,98917.16
2023-01-29T18:17:30.146Z,98920.72
2023-01-29T18:20:38.430Z,98913.59
2023-01-29T18:23:42.428Z,98914.13
2023-01-29T18:26:45.717Z,98911.38
2023-01-29T18:29:50.408Z,98905.91
2023-01-29T18:32:54.502Z,98897.66
2023-01-29T18:36:00.595Z,98880.41
2023-01-29T18:39:04.210Z,98885.06
2023-01-29T18:42:08.110Z,98885.88
2023-01-29T18:45:13.624Z,98880.69
2023-01-29T18:48:17.302Z,98863.16
2023-01-29T18:51:21.875Z,98865.88
2023-01-29T18:54:25.476Z,98857.66
2023-01-29T18:58:26.134Z,98868.09
2023-01-29T19:00:52.564Z,98866.44
2023-01-29T19:03:56.532Z,98861.03
2023-01-29T19:07:01.786Z,98855.47
2023-01-29T19:10:09.292Z,98852.53
2023-01-29T19:13:13.109Z,98849.38
2023-01-29T19:16:16.566Z,98860.50
2023-01-29T19:19:21.234Z,98850.09
2023-01-29T19:22:25.896Z,98847.78
2023-01-29T19:25:29.798Z,98849.84
2023-01-29T19:28:33.771Z,98858.69
2023-01-29T19:31:37.725Z,98857.19
2023-01-29T19:34:41.069Z,98857.09
2023-01-29T19:37:46.240Z,98861.47
2023-01-29T19:40:49.657Z,98860.56
2023-01-29T19:43:53.996Z,98844.81
2023-01-29T19:46:57.458Z,98856.03
2023-01-29T19:50:02.115Z,98849.81
2023-01-29T19:53:06.745Z,98834.16
2023-01-29T19:56:13.598Z,98851.50
2023-01-29T19:59:16.784Z,98848.81
2023-01-29T20:02:20.429Z,98845.09
2023-01-29T20:05:24.101Z,98848.19
2023-01-29T20:08:29.357Z,98848.03
2023-01-29T20:11:33.148Z,98844.34
2023-01-29T20:14:36.614Z,98842.75
2023-01-29T20:17:40.150Z,98846.72
2023-01-29T20:20:45.169Z,98853.47
2023-01-29T20:23:51.371Z,98841.06
2023-01-29T20:26:55.128Z,98833.47
2023-01-29T20:29:58.411Z,98824.09
2023-01-29T20:33:03.219Z,98827.69
2023-01-29T20:36:10.293Z,98831.28
2023-01-29T20:39:15.203Z,98818.34
2023-01-29T20:42:18.459Z,98821.44
2023-01-29T20:45:23.317Z,98806.97
2023-01-29T20:48:26.553Z,98802.22
2023-01-29T20:51:30.759Z,98798.81
2023-01-29T20:54:35.497Z,98788.91
2023-01-29T20:57:40.208Z,98787.56
2023-01-29T21:00:43.570Z,98775.69
2023-01-29T21:03:48.380Z,98772.13
2023-01-29T21:06:51.620Z,98777.31
2023-01-29T21:09:56.716Z,98773.03
2023-01-29T21:13:00.056Z,98759.78
2023-01-29T21:16:04.057Z,98759.09
2023-01-29T21:19:07.856Z,98761.84
2023-01-29T21:22:11.365Z,98761.34
2023-01-29T21:25:20.251Z,98762.16
2023-01-29T21:28:24.180Z,98754.03
2023-01-29T21:31:27.630Z,98755.66
2023-01-29T21:34:31.749Z,98750.59
2023-01-29T21:37:36.918Z,98747.19
2023-01-29T21:40:42.295Z,98737.94
2023-01-29T21:43:46.119Z,98739.41
2023-01-29T21:46:49.823Z,98736.00
2023-01-29T21:49:53.080Z,98730.81
2023-01-29T21:52:56.983Z,98735.34
2023-01-29T21:56:03.416Z,98732.06
2023-01-29T21:59:07.612Z,98718.72
2023-01-29T22:02:15.676Z,98720.03
2023-01-29T22:05:20.532Z,98714.19
2023-01-29T22:08:23.877Z,98702.72
2023-01-29T22:11:29.393Z,98706.25
2023-01-29T22:14:32.566Z,98702.88
2023-01-29T22:17:36.719Z,98698.81
2023-01-29T22:20:39.928Z,98679.28
2023-01-29T22:23:43.855Z,98689.38
2023-01-29T22:26:49.454Z,98681.63
2023-01-29T22:29:53.343Z,98682.53
2023-01-29T22:32:56.589Z,98690.66
2023-01-29T22:36:00.349Z,98685.69
2023-01-29T22:39:04.516Z,98673.53
2023-01-29T22:42:09.424Z,98678.28
2023-01-29T22:45:13.547Z,98674.34
2023-01-29T22:48:17.196Z,98636.72
2023-01-29T22:51:20.420Z,98647.34
2023-01-29T22:54:23.940Z,98647.25
2023-01-29T22:57:28.551Z,98643.16
2023-01-29T23:00:32.573Z,98631.94
2023-01-29T23:03:36.414Z,98619.97
2023-01-29T23:06:39.998Z,98606.50
2023-01-29T23:09:43.191Z,98601.16
2023-01-29T23:12:48.233Z,98585.19
2023-01-29T23:16:00.032Z,98581.66
2023-01-29T23:19:03.921Z,98586.00
2023-01-29T23:22:07.150Z,98566.16
2023-01-29T23:25:11.240Z,98570.56
2023-01-29T23:28:15.006Z,98567.78
2023-01-29T23:31:19.210Z,98561.44
2023-01-29T23:34:22.434Z,98551.81
2023-01-29T23:37:26.441Z,98545.81
2023-01-29T23:40:29.634Z,98538.16
2023-01-29T23:43:35.380Z,98517.47
2023-01-29T23:46:38.574Z,98507.19
2023-01-29T23:49:42.432Z,98505.56
2023-01-29T23:52:45.590Z,98514.69
2023-01-29T23:55:58.385Z,98507.91
2023-01-29T23:59:02.886Z,98495.16
